sensor_id;sensor_type;location;lat;lon;timestamp;temperature;humidity
20598;DHT22;10457;48.770;11.446;2023-02-20T00:04:24;7.80;90.10
20598;DHT22;10457;48.770;11.446;2023-02-20T00:09:45;7.80;89.70
20598;DHT22;10457;48.770;11.446;2023-02-20T00:15:09;7.80;89.10
20598;DHT22;10457;48.770;11.446;2023-02-20T00:20:33;7.80;89.50
20598;DHT22;10457;48.770;11.446;2023-02-20T00:25:55;7.90;89.30
20598;DHT22;10457;48.770;11.446;2023-02-20T00:31:18;7.80;88.10
20598;DHT22;10457;48.770;11.446;2023-02-20T00:36:39;8.00;87.30
20598;DHT22;10457;48.770;11.446;2023-02-20T00:42:01;7.90;88.10
20598;DHT22;10457;48.770;11.446;2023-02-20T00:47:24;7.90;88.00
20598;DHT22;10457;48.770;11.446;2023-02-20T00:52:45;7.90;89.60
20598;DHT22;10457;48.770;11.446;2023-02-20T00:58:06;7.90;90.10
20598;DHT22;10457;48.770;11.446;2023-02-20T01:03:29;7.80;90.70
20598;DHT22;10457;48.770;11.446;2023-02-20T01:08:51;7.90;90.50
20598;DHT22;10457;48.770;11.446;2023-02-20T01:14:14;7.90;90.20
20598;DHT22;10457;48.770;11.446;2023-02-20T01:19:37;7.90;89.00
20598;DHT22;10457;48.770;11.446;2023-02-20T01:24:58;7.80;89.90
20598;DHT22;10457;48.770;11.446;2023-02-20T01:30:20;7.80;90.60
20598;DHT22;10457;48.770;11.446;2023-02-20T01:35:42;7.80;89.80
20598;DHT22;10457;48.770;11.446;2023-02-20T01:41:04;7.80;89.80
20598;DHT22;10457;48.770;11.446;2023-02-20T01:46:49;7.70;90.10
20598;DHT22;10457;48.770;11.446;2023-02-20T01:52:15;7.80;90.40
20598;DHT22;10457;48.770;11.446;2023-02-20T01:57:41;7.70;90.30
20598;DHT22;10457;48.770;11.446;2023-02-20T02:03:06;7.70;90.00
20598;DHT22;10457;48.770;11.446;2023-02-20T02:08:33;7.80;89.80
20598;DHT22;10457;48.770;11.446;2023-02-20T02:13:56;7.80;89.30
20598;DHT22;10457;48.770;11.446;2023-02-20T02:19:37;7.70;88.90
20598;DHT22;10457;48.770;11.446;2023-02-20T02:25:25;7.80;88.40
20598;DHT22;10457;48.770;11.446;2023-02-20T02:31:20;7.80;87.60
20598;DHT22;10457;48.770;11.446;2023-02-20T02:37:11;8.00;86.60
20598;DHT22;10457;48.770;11.446;2023-02-20T02:42:41;7.90;86.80
20598;DHT22;10457;48.770;11.446;2023-02-20T02:48:12;7.70;87.10
20598;DHT22;10457;48.770;11.446;2023-02-20T02:53:36;7.70;87.00
20598;DHT22;10457;48.770;11.446;2023-02-20T02:58:57;7.70;87.40
20598;DHT22;10457;48.770;11.446;2023-02-20T03:04:18;7.70;87.40
20598;DHT22;10457;48.770;11.446;2023-02-20T03:09:47;7.70;87.70
20598;DHT22;10457;48.770;11.446;2023-02-20T03:15:19;7.70;87.20
20598;DHT22;10457;48.770;11.446;2023-02-20T03:20:59;7.60;88.60
20598;DHT22;10457;48.770;11.446;2023-02-20T03:26:29;7.40;89.20
20598;DHT22;10457;48.770;11.446;2023-02-20T03:31:55;7.30;89.90
20598;DHT22;10457;48.770;11.446;2023-02-20T03:37:37;7.40;90.20
20598;DHT22;10457;48.770;11.446;2023-02-20T03:43:20;7.30;90.20
20598;DHT22;10457;48.770;11.446;2023-02-20T03:48:44;7.40;89.60
20598;DHT22;10457;48.770;11.446;2023-02-20T03:54:08;7.30;90.50
20598;DHT22;10457;48.770;11.446;2023-02-20T03:59:35;7.40;90.90
20598;DHT22;10457;48.770;11.446;2023-02-20T04:05:02;7.40;90.70
20598;DHT22;10457;48.770;11.446;2023-02-20T04:10:36;7.50;90.10
20598;DHT22;10457;48.770;11.446;2023-02-20T04:16:03;7.40;90.20
20598;DHT22;10457;48.770;11.446;2023-02-20T04:21:32;7.40;90.20
20598;DHT22;10457;48.770;11.446;2023-02-20T04:26:56;7.30;90.90
20598;DHT22;10457;48.770;11.446;2023-02-20T04:32:19;7.20;91.60
20598;DHT22;10457;48.770;11.446;2023-02-20T04:37:41;7.30;91.10
20598;DHT22;10457;48.770;11.446;2023-02-20T04:43:03;7.30;90.00
20598;DHT22;10457;48.770;11.446;2023-02-20T04:48:26;7.40;89.80
20598;DHT22;10457;48.770;11.446;2023-02-20T04:53:47;7.30;89.70
20598;DHT22;10457;48.770;11.446;2023-02-20T04:59:09;7.30;90.20
20598;DHT22;10457;48.770;11.446;2023-02-20T05:04:34;7.20;90.10
20598;DHT22;10457;48.770;11.446;2023-02-20T05:09:55;7.20;90.70
20598;DHT22;10457;48.770;11.446;2023-02-20T05:15:17;7.10;90.70
20598;DHT22;10457;48.770;11.446;2023-02-20T05:20:40;7.10;91.80
20598;DHT22;10457;48.770;11.446;2023-02-20T05:26:20;7.00;91.60
20598;DHT22;10457;48.770;11.446;2023-02-20T05:31:42;6.90;92.70
20598;DHT22;10457;48.770;11.446;2023-02-20T05:37:06;6.90;93.00
20598;DHT22;10457;48.770;11.446;2023-02-20T05:42:31;6.90;92.40
20598;DHT22;10457;48.770;11.446;2023-02-20T05:47:52;7.00;92.30
20598;DHT22;10457;48.770;11.446;2023-02-20T05:53:15;7.00;91.80
20598;DHT22;10457;48.770;11.446;2023-02-20T05:58:36;6.90;92.20
20598;DHT22;10457;48.770;11.446;2023-02-20T06:03:58;7.00;92.10
20598;DHT22;10457;48.770;11.446;2023-02-20T06:09:22;6.90;92.00
20598;DHT22;10457;48.770;11.446;2023-02-20T06:14:44;6.90;91.10
20598;DHT22;10457;48.770;11.446;2023-02-20T06:20:06;6.90;90.60
20598;DHT22;10457;48.770;11.446;2023-02-20T06:25:30;6.90;90.80
20598;DHT22;10457;48.770;11.446;2023-02-20T06:30:51;6.80;90.80
20598;DHT22;10457;48.770;11.446;2023-02-20T06:36:19;6.90;89.80
20598;DHT22;10457;48.770;11.446;2023-02-20T06:41:43;6.80;89.80
20598;DHT22;10457;48.770;11.446;2023-02-20T06:47:04;6.80;89.90
20598;DHT22;10457;48.770;11.446;2023-02-20T06:52:28;6.80;89.60
20598;DHT22;10457;48.770;11.446;2023-02-20T06:57:51;6.80;92.00
20598;DHT22;10457;48.770;11.446;2023-02-20T07:03:12;6.80;89.90
20598;DHT22;10457;48.770;11.446;2023-02-20T07:08:34;6.90;89.40
20598;DHT22;10457;48.770;11.446;2023-02-20T07:13:56;7.00;87.00
20598;DHT22;10457;48.770;11.446;2023-02-20T07:19:18;7.10;86.90
20598;DHT22;10457;48.770;11.446;2023-02-20T07:24:40;7.00;85.90
20598;DHT22;10457;48.770;11.446;2023-02-20T07:30:03;7.20;85.20
20598;DHT22;10457;48.770;11.446;2023-02-20T07:35:25;7.50;83.30
20598;DHT22;10457;48.770;11.446;2023-02-20T07:40:54;7.60;82.00
20598;DHT22;10457;48.770;11.446;2023-02-20T07:46:17;7.70;81.20
20598;DHT22;10457;48.770;11.446;2023-02-20T07:51:38;7.70;81.40
20598;DHT22;10457;48.770;11.446;2023-02-20T07:57:00;7.70;81.00
20598;DHT22;10457;48.770;11.446;2023-02-20T08:02:23;7.80;81.10
20598;DHT22;10457;48.770;11.446;2023-02-20T08:07:45;7.90;79.50
20598;DHT22;10457;48.770;11.446;2023-02-20T08:13:06;8.00;79.40
20598;DHT22;10457;48.770;11.446;2023-02-20T08:18:29;7.80;79.10
20598;DHT22;10457;48.770;11.446;2023-02-20T08:23:51;7.90;79.20
20598;DHT22;10457;48.770;11.446;2023-02-20T08:29:15;8.80;75.90
20598;DHT22;10457;48.770;11.446;2023-02-20T08:34:38;9.50;70.90
20598;DHT22;10457;48.770;11.446;2023-02-20T08:40:00;10.60;66.50
20598;DHT22;10457;48.770;11.446;2023-02-20T08:45:25;12.50;60.10
20598;DHT22;10457;48.770;11.446;2023-02-20T08:50:48;14.00;55.60
20598;DHT22;10457;48.770;11.446;2023-02-20T08:56:09;14.50;53.20
20598;DHT22;10457;48.770;11.446;2023-02-20T09:01:31;15.40;50.90
20598;DHT22;10457;48.770;11.446;2023-02-20T09:06:54;16.00;49.50
20598;DHT22;10457;48.770;11.446;2023-02-20T09:12:16;13.70;53.60
20598;DHT22;10457;48.770;11.446;2023-02-20T09:17:38;12.70;57.10
20598;DHT22;10457;48.770;11.446;2023-02-20T09:23:00;12.40;56.80
20598;DHT22;10457;48.770;11.446;2023-02-20T09:28:22;12.00;58.20
20598;DHT22;10457;48.770;11.446;2023-02-20T09:33:44;11.90;58.80
20598;DHT22;10457;48.770;11.446;2023-02-20T09:39:07;12.00;59.30
20598;DHT22;10457;48.770;11.446;2023-02-20T09:44:37;14.50;54.40
20598;DHT22;10457;48.770;11.446;2023-02-20T09:50:03;15.20;51.10
20598;DHT22;10457;48.770;11.446;2023-02-20T09:55:34;15.40;50.20
20598;DHT22;10457;48.770;11.446;2023-02-20T10:01:00;15.80;51.10
20598;DHT22;10457;48.770;11.446;2023-02-20T10:06:24;16.50;48.50
20598;DHT22;10457;48.770;11.446;2023-02-20T10:11:57;15.10;49.90
20598;DHT22;10457;48.770;11.446;2023-02-20T10:17:30;14.90;50.50
20598;DHT22;10457;48.770;11.446;2023-02-20T10:23:01;14.60;50.90
20598;DHT22;10457;48.770;11.446;2023-02-20T10:28:29;16.40;48.70
20598;DHT22;10457;48.770;11.446;2023-02-20T10:33:56;17.90;45.10
20598;DHT22;10457;48.770;11.446;2023-02-20T10:39:21;19.50;39.60
20598;DHT22;10457;48.770;11.446;2023-02-20T10:44:48;18.40;42.60
20598;DHT22;10457;48.770;11.446;2023-02-20T10:50:17;20.10;39.80
20598;DHT22;10457;48.770;11.446;2023-02-20T10:55:45;21.80;37.30
20598;DHT22;10457;48.770;11.446;2023-02-20T11:01:14;23.50;33.50
20598;DHT22;10457;48.770;11.446;2023-02-20T11:06:43;23.50;34.40
20598;DHT22;10457;48.770;11.446;2023-02-20T11:12:07;23.10;33.40
20598;DHT22;10457;48.770;11.446;2023-02-20T11:17:41;23.30;33.30
20598;DHT22;10457;48.770;11.446;2023-02-20T11:23:04;24.10;32.10
20598;DHT22;10457;48.770;11.446;2023-02-20T11:28:26;21.70;35.10
20598;DHT22;10457;48.770;11.446;2023-02-20T11:33:49;22.30;33.40
20598;DHT22;10457;48.770;11.446;2023-02-20T11:39:23;23.50;32.50
20598;DHT22;10457;48.770;11.446;2023-02-20T11:44:45;23.60;32.30
20598;DHT22;10457;48.770;11.446;2023-02-20T11:50:39;21.80;34.90
20598;DHT22;10457;48.770;11.446;2023-02-20T11:56:08;24.20;31.40
20598;DHT22;10457;48.770;11.446;2023-02-20T12:01:32;23.00;31.50
20598;DHT22;10457;48.770;11.446;2023-02-20T12:06:57;24.30;31.00
20598;DHT22;10457;48.770;11.446;2023-02-20T12:12:18;24.50;29.80
20598;DHT22;10457;48.770;11.446;2023-02-20T12:17:58;25.60;28.90
20598;DHT22;10457;48.770;11.446;2023-02-20T12:23:42;26.40;28.60
20598;DHT22;10457;48.770;11.446;2023-02-20T12:29:18;26.70;27.30
20598;DHT22;10457;48.770;11.446;2023-02-20T12:35:13;26.10;27.90
20598;DHT22;10457;48.770;11.446;2023-02-20T12:41:06;27.20;27.20
20598;DHT22;10457;48.770;11.446;2023-02-20T12:46:56;27.10;26.80
20598;DHT22;10457;48.770;11.446;2023-02-20T12:52:45;22.60;31.20
20598;DHT22;10457;48.770;11.446;2023-02-20T12:58:22;24.50;29.90
20598;DHT22;10457;48.770;11.446;2023-02-20T13:03:59;21.70;35.00
20598;DHT22;10457;48.770;11.446;2023-02-20T13:09:27;19.60;37.70
20598;DHT22;10457;48.770;11.446;2023-02-20T13:15:03;21.10;36.70
20598;DHT22;10457;48.770;11.446;2023-02-20T13:20:35;22.10;34.40
20598;DHT22;10457;48.770;11.446;2023-02-20T13:26:01;21.60;33.90
20598;DHT22;10457;48.770;11.446;2023-02-20T13:31:42;23.20;32.70
20598;DHT22;10457;48.770;11.446;2023-02-20T13:37:49;24.30;31.00
20598;DHT22;10457;48.770;11.446;2023-02-20T13:43:23;21.90;33.30
20598;DHT22;10457;48.770;11.446;2023-02-20T13:48:50;20.50;35.90
20598;DHT22;10457;48.770;11.446;2023-02-20T13:54:31;19.90;38.20
20598;DHT22;10457;48.770;11.446;2023-02-20T13:59:54;23.20;33.20
20598;DHT22;10457;48.770;11.446;2023-02-20T14:05:21;22.80;32.50
20598;DHT22;10457;48.770;11.446;2023-02-20T14:10:44;20.70;35.20
20598;DHT22;10457;48.770;11.446;2023-02-20T14:16:28;21.60;33.80
20598;DHT22;10457;48.770;11.446;2023-02-20T14:21:52;23.90;30.00
20598;DHT22;10457;48.770;11.446;2023-02-20T14:27:27;22.90;31.10
20598;DHT22;10457;48.770;11.446;2023-02-20T14:32:52;22.50;30.20
20598;DHT22;10457;48.770;11.446;2023-02-20T14:38:25;21.80;31.30
20598;DHT22;10457;48.770;11.446;2023-02-20T14:43:55;21.70;31.40
20598;DHT22;10457;48.770;11.446;2023-02-20T14:49:23;20.20;34.10
20598;DHT22;10457;48.770;11.446;2023-02-20T14:54:57;19.00;35.40
20598;DHT22;10457;48.770;11.446;2023-02-20T15:00:33;18.30;35.50
20598;DHT22;10457;48.770;11.446;2023-02-20T15:05:59;17.40;35.50
20598;DHT22;10457;48.770;11.446;2023-02-20T15:11:23;16.90;36.80
20598;DHT22;10457;48.770;11.446;2023-02-20T15:16:45;16.70;37.10
20598;DHT22;10457;48.770;11.446;2023-02-20T15:22:25;16.30;36.70
20598;DHT22;10457;48.770;11.446;2023-02-20T15:28:06;16.00;37.50
20598;DHT22;10457;48.770;11.446;2023-02-20T15:33:32;15.60;37.60
20598;DHT22;10457;48.770;11.446;2023-02-20T15:38:55;15.40;37.90
20598;DHT22;10457;48.770;11.446;2023-02-20T15:44:19;15.10;38.00
20598;DHT22;10457;48.770;11.446;2023-02-20T15:49:41;15.00;38.60
20598;DHT22;10457;48.770;11.446;2023-02-20T15:55:04;14.90;38.70
20598;DHT22;10457;48.770;11.446;2023-02-20T16:00:29;14.70;39.20
20598;DHT22;10457;48.770;11.446;2023-02-20T16:05:51;14.60;39.60
20598;DHT22;10457;48.770;11.446;2023-02-20T16:11:13;14.50;40.00
20598;DHT22;10457;48.770;11.446;2023-02-20T16:16:39;14.30;40.80
20598;DHT22;10457;48.770;11.446;2023-02-20T16:22:01;14.10;41.30
20598;DHT22;10457;48.770;11.446;2023-02-20T16:27:25;13.90;41.80
20598;DHT22;10457;48.770;11.446;2023-02-20T16:32:50;13.60;43.10
20598;DHT22;10457;48.770;11.446;2023-02-20T16:38:13;13.30;44.50
20598;DHT22;10457;48.770;11.446;2023-02-20T16:43:34;13.10;46.00
20598;DHT22;10457;48.770;11.446;2023-02-20T16:48:57;12.80;46.90
20598;DHT22;10457;48.770;11.446;2023-02-20T16:54:19;12.60;47.70
20598;DHT22;10457;48.770;11.446;2023-02-20T16:59:41;12.40;48.20
20598;DHT22;10457;48.770;11.446;2023-02-20T17:05:04;12.30;48.40
20598;DHT22;10457;48.770;11.446;2023-02-20T17:10:26;12.20;48.30
20598;DHT22;10457;48.770;11.446;2023-02-20T17:15:48;12.20;48.20
20598;DHT22;10457;48.770;11.446;2023-02-20T17:21:11;12.00;49.20
20598;DHT22;10457;48.770;11.446;2023-02-20T17:26:34;11.90;50.90
20598;DHT22;10457;48.770;11.446;2023-02-20T17:31:55;11.70;50.80
20598;DHT22;10457;48.770;11.446;2023-02-20T17:37:19;11.50;50.80
20598;DHT22;10457;48.770;11.446;2023-02-20T17:42:42;11.50;50.00
20598;DHT22;10457;48.770;11.446;2023-02-20T17:48:03;11.60;49.00
20598;DHT22;10457;48.770;11.446;2023-02-20T17:53:28;11.50;48.60
20598;DHT22;10457;48.770;11.446;2023-02-20T17:58:50;11.50;47.60
20598;DHT22;10457;48.770;11.446;2023-02-20T18:04:11;11.60;46.80
20598;DHT22;10457;48.770;11.446;2023-02-20T18:09:34;11.60;46.30
20598;DHT22;10457;48.770;11.446;2023-02-20T18:14:56;11.40;46.90
20598;DHT22;10457;48.770;11.446;2023-02-20T18:20:18;11.20;47.40
20598;DHT22;10457;48.770;11.446;2023-02-20T18:25:41;10.90;48.50
20598;DHT22;10457;48.770;11.446;2023-02-20T18:31:02;10.90;48.50
20598;DHT22;10457;48.770;11.446;2023-02-20T18:36:24;10.70;49.10
20598;DHT22;10457;48.770;11.446;2023-02-20T18:41:52;10.60;49.50
20598;DHT22;10457;48.770;11.446;2023-02-20T18:47:15;10.50;49.50
20598;DHT22;10457;48.770;11.446;2023-02-20T18:52:37;10.40;50.20
20598;DHT22;10457;48.770;11.446;2023-02-20T18:58:00;10.20;51.10
20598;DHT22;10457;48.770;11.446;2023-02-20T19:03:21;10.20;51.40
20598;DHT22;10457;48.770;11.446;2023-02-20T19:08:43;10.00;51.70
20598;DHT22;10457;48.770;11.446;2023-02-20T19:14:06;10.00;52.00
20598;DHT22;10457;48.770;11.446;2023-02-20T19:19:29;9.80;52.00
20598;DHT22;10457;48.770;11.446;2023-02-20T19:24:54;9.70;52.30
20598;DHT22;10457;48.770;11.446;2023-02-20T19:30:19;9.60;52.80
20598;DHT22;10457;48.770;11.446;2023-02-20T19:35:40;9.40;53.60
20598;DHT22;10457;48.770;11.446;2023-02-20T19:41:02;9.30;53.90
20598;DHT22;10457;48.770;11.446;2023-02-20T19:46:25;9.20;54.30
20598;DHT22;10457;48.770;11.446;2023-02-20T19:51:47;9.20;54.00
20598;DHT22;10457;48.770;11.446;2023-02-20T19:57:09;9.20;54.20
20598;DHT22;10457;48.770;11.446;2023-02-20T20:02:32;9.10;54.40
20598;DHT22;10457;48.770;11.446;2023-02-20T20:07:54;8.90;55.20
20598;DHT22;10457;48.770;11.446;2023-02-20T20:13:15;9.00;55.00
20598;DHT22;10457;48.770;11.446;2023-02-20T20:18:38;8.90;55.50
20598;DHT22;10457;48.770;11.446;2023-02-20T20:24:00;8.70;56.30
20598;DHT22;10457;48.770;11.446;2023-02-20T20:29:21;8.50;56.70
20598;DHT22;10457;48.770;11.446;2023-02-20T20:34:46;8.50;57.10
20598;DHT22;10457;48.770;11.446;2023-02-20T20:40:12;8.40;57.20
20598;DHT22;10457;48.770;11.446;2023-02-20T20:45:35;8.30;58.30
20598;DHT22;10457;48.770;11.446;2023-02-20T20:50:59;8.20;58.80
20598;DHT22;10457;48.770;11.446;2023-02-20T20:56:20;8.10;59.50
20598;DHT22;10457;48.770;11.446;2023-02-20T21:01:42;8.10;59.70
20598;DHT22;10457;48.770;11.446;2023-02-20T21:07:05;8.20;59.90
20598;DHT22;10457;48.770;11.446;2023-02-20T21:12:26;8.30;60.10
20598;DHT22;10457;48.770;11.446;2023-02-20T21:17:48;8.40;60.10
20598;DHT22;10457;48.770;11.446;2023-02-20T21:23:10;8.60;59.70
20598;DHT22;10457;48.770;11.446;2023-02-20T21:28:31;8.60;59.30
20598;DHT22;10457;48.770;11.446;2023-02-20T21:33:53;8.60;59.20
20598;DHT22;10457;48.770;11.446;2023-02-20T21:39:16;8.60;59.30
20598;DHT22;10457;48.770;11.446;2023-02-20T21:44:38;8.60;59.20
20598;DHT22;10457;48.770;11.446;2023-02-20T21:50:03;8.50;59.10
20598;DHT22;10457;48.770;11.446;2023-02-20T21:55:28;8.40;59.20
20598;DHT22;10457;48.770;11.446;2023-02-20T22:00:50;8.40;59.00
20598;DHT22;10457;48.770;11.446;2023-02-20T22:06:10;8.40;59.20
20598;DHT22;10457;48.770;11.446;2023-02-20T22:11:32;8.30;59.40
20598;DHT22;10457;48.770;11.446;2023-02-20T22:17:11;8.30;60.40
20598;DHT22;10457;48.770;11.446;2023-02-20T22:22:50;8.20;59.90
20598;DHT22;10457;48.770;11.446;2023-02-20T22:28:30;8.30;59.90
20598;DHT22;10457;48.770;11.446;2023-02-20T22:34:09;8.10;60.40
20598;DHT22;10457;48.770;11.446;2023-02-20T22:39:48;8.20;59.90
20598;DHT22;10457;48.770;11.446;2023-02-20T22:45:28;8.10;59.80
20598;DHT22;10457;48.770;11.446;2023-02-20T22:51:07;8.10;60.60
20598;DHT22;10457;48.770;11.446;2023-02-20T22:56:46;8.00;59.60
20598;DHT22;10457;48.770;11.446;2023-02-20T23:02:26;8.00;59.50
20598;DHT22;10457;48.770;11.446;2023-02-20T23:08:05;8.00;59.60
20598;DHT22;10457;48.770;11.446;2023-02-20T23:13:45;7.70;60.20
20598;DHT22;10457;48.770;11.446;2023-02-20T23:19:25;7.70;60.60
20598;DHT22;10457;48.770;11.446;2023-02-20T23:25:04;7.50;61.40
20598;DHT22;10457;48.770;11.446;2023-02-20T23:30:43;7.40;61.60
20598;DHT22;10457;48.770;11.446;2023-02-20T23:36:23;7.30;62.10
20598;DHT22;10457;48.770;11.446;2023-02-20T23:42:01;7.30;61.80
20598;DHT22;10457;48.770;11.446;2023-02-20T23:47:40;7.30;62.00
20598;DHT22;10457;48.770;11.446;2023-02-20T23:53:20;7.10;62.90
20598;DHT22;10457;48.770;11.446;2023-02-20T23:58:59;7.20;62.30
